Charlottesville Albemarle Airport
KCHO : now visible

Airfield :











YOU CAN JOIN US ON...

 
LOGIN :

Register | Disclaimer

   EN    FR    IT 

 









Legend :    VFR   Marginal VFR   IFR   Intensive IFR   Very Intensive IFR
Visi :
Ceiling :
>= 8 km
>= 3000ft
5 to 8 km
1000 to 3000 ft
1500m to 5 km
500 to 1000 ft
800 to 1500m
200 to 500 ft
< 800m
< 200 ft
Symbols :   Thunderstorms  Fog  Heavy snow  Heavy precipitations  Wind > 20 kt







- Airport Elevation : 639 ft
- IATA code : CHO


KCHO - Charlottesville Albemarle

CURRENT METAR :
  • 212153Z 16007KT 10SM CLR 32/17 A3015 RMK AO2 SLP203 T03170167

EXPIRED METARs :
  • 212053Z 00000KT 10SM CLR 32/16 A3015 RMK AO2 SLP202 T03220161 56019
  • 211953Z 18006KT 10SM SCT065 33/17 A3016 RMK AO2 SLP206 T03280172

TAF KCHO
Valid from the 21 at 18:00 until the 22 at 18:00 UTC


211725Z 2118/2218 19004KT P6SM FEW050 FEW250
FM220000 00000KT P6SM FEW050 SCT150
FM220800 00000KT 3SM BR FEW045 FEW140
FM221300 VRB03KT P6SM FEW150
No reported NOTAMs for that airfield.



MET'MAP, your aeronautical weather chart ! - Copyright ORBIFLY December 2007 - Disclaimer

ORBIFLY MET'MAP TEAM :

Programming & Development : Alexandra Zaïnal
Concept & Development : Baudouin d'Aumeries
Co-Development & Prog : Marc-Olivier Méhu
Technical & hardware support : Manuel Goepfert

Contact : metmap@orbifly.com




SOURCES & CREDITS :

   NOAA       Earth
Advisory